Terminal Aerodrome Forecast
Issued by NWS Jacksonville, FL

Home | Current Version | Previous Version | Text Only | Print | Product List | Glossary On
Versions: 1 2 3 4 5 6 7 8 9 10 11 12 13 14 15 16 17 18 19 20 21 22 23 24 25 26 27 28 29
000
FTUS42 KJAX 270552
TAFGNV
TAF
KGNV 270552Z 2706/2806 26005KT P6SM SCT040 BKN150 BKN250
     FM270900 27003KT 5SM BR VCSH SCT010 BKN040 BKN120
     FM271300 27007KT P6SM VCSH BKN040 BKN120 OVC200
     FM280000 24005KT P6SM VCSH BKN030 OVC150 PROB30 2800/2804 5SM
      -SHRA BR=

USA.gov is the U.S. government's official web portal to all federal, state and local government web resources and services.